createdAt,value
2022-11-01T00:02:22.216Z,11.50
2022-11-01T00:05:30.245Z,11.60
2022-11-01T00:08:38.446Z,11.40
2022-11-01T00:11:46.472Z,10.00
2022-11-01T00:14:54.547Z,11.90
2022-11-01T00:18:02.591Z,11.80
2022-11-01T00:21:11.311Z,9.20
2022-11-01T00:24:19.165Z,11.40
2022-11-01T00:27:27.531Z,10.60
2022-11-01T00:30:37.307Z,10.80
2022-11-01T00:33:45.475Z,10.40
2022-11-01T00:36:53.408Z,11.30
2022-11-01T00:40:01.783Z,11.30
2022-11-01T00:43:09.736Z,8.20
2022-11-01T00:46:18.233Z,11.70
2022-11-01T00:49:26.346Z,8.10
2022-11-01T00:52:34.437Z,9.90
2022-11-01T00:55:42.243Z,9.50
2022-11-01T00:58:50.362Z,9.60
2022-11-01T01:01:58.501Z,8.20
2022-11-01T01:05:09.258Z,10.70
2022-11-01T01:08:17.054Z,9.60
2022-11-01T01:11:25.053Z,10.50
2022-11-01T01:14:33.503Z,8.30
2022-11-01T01:17:41.743Z,9.90
2022-11-01T01:20:49.493Z,11.60
2022-11-01T01:23:57.511Z,10.00
2022-11-01T01:27:05.815Z,11.00
2022-11-01T01:30:15.392Z,10.60
2022-11-01T01:33:23.314Z,10.90
2022-11-01T01:36:31.252Z,10.50
2022-11-01T01:39:39.597Z,11.20
2022-11-01T01:42:47.921Z,9.30
2022-11-01T01:45:55.949Z,11.00
2022-11-01T01:49:06.319Z,8.60
2022-11-01T01:52:15.091Z,10.70
2022-11-01T01:55:28.052Z,10.10
2022-11-01T01:58:43.089Z,10.70
2022-11-01T02:01:52.352Z,9.10
2022-11-01T02:05:08.671Z,9.70
2022-11-01T02:08:26.796Z,10.20
2022-11-01T02:11:34.837Z,8.90
2022-11-01T02:14:49.043Z,9.30
2022-11-01T02:18:16.395Z,10.00
2022-11-01T02:21:55.216Z,10.50
2022-11-01T02:25:30.187Z,9.30
2022-11-01T02:29:05.690Z,8.90
2022-11-01T02:32:25.013Z,10.40
2022-11-01T02:35:49.575Z,9.90
2022-11-01T02:39:03.820Z,10.20
2022-11-01T02:42:19.730Z,7.30
2022-11-01T02:45:36.473Z,10.70
2022-11-01T02:48:44.705Z,10.70
2022-11-01T02:51:57.472Z,11.00
2022-11-01T02:55:30.287Z,10.40
2022-11-01T02:58:40.624Z,9.30
2022-11-01T03:05:00.264Z,10.20
2022-11-01T03:08:12.967Z,10.30
2022-11-01T03:11:25.045Z,9.60
2022-11-01T03:14:43.659Z,9.10
2022-11-01T03:18:00.979Z,9.60
2022-11-01T03:21:18.781Z,10.00
2022-11-01T03:24:40.121Z,10.20
2022-11-01T03:27:50.150Z,8.40
2022-11-01T03:31:05.835Z,10.30
2022-11-01T03:34:20.320Z,6.90
2022-11-01T03:37:32.286Z,9.20
2022-11-01T03:40:47.496Z,9.50
2022-11-01T03:43:57.454Z,9.60
2022-11-01T03:50:22.212Z,9.30
2022-11-01T03:53:30.300Z,8.60
2022-11-01T03:56:40.631Z,8.00
2022-11-01T03:59:48.847Z,8.90
2022-11-01T04:02:59.115Z,8.90
2022-11-01T04:06:08.323Z,9.00
2022-11-01T04:09:17.156Z,8.30
2022-11-01T04:12:27.227Z,8.30
2022-11-01T04:15:52.966Z,8.40
2022-11-01T04:19:18.553Z,8.80
2022-11-01T04:22:26.958Z,9.60
2022-11-01T04:25:36.163Z,10.90
2022-11-01T04:28:57.692Z,9.00
2022-11-01T04:32:06.344Z,8.90
2022-11-01T04:35:15.798Z,10.90
2022-11-01T04:38:25.540Z,9.30
2022-11-01T04:41:34.064Z,10.40
2022-11-01T04:44:42.611Z,7.90
2022-11-01T04:48:02.757Z,9.20
2022-11-01T04:51:12.233Z,8.90
2022-11-01T04:54:20.036Z,9.80
2022-11-01T04:57:28.281Z,8.80
2022-11-01T05:00:36.632Z,9.40
2022-11-01T05:03:44.868Z,8.10
2022-11-01T05:06:52.659Z,8.70
2022-11-01T05:10:14.793Z,7.30
2022-11-01T05:13:22.742Z,9.30
2022-11-01T05:16:31.062Z,9.20
2022-11-01T05:19:38.967Z,8.00
2022-11-01T05:22:47.821Z,8.50
2022-11-01T05:25:55.591Z,9.30
2022-11-01T05:29:08.774Z,9.00
2022-11-01T05:32:19.266Z,9.20
2022-11-01T05:38:34.168Z,8.40
2022-11-01T05:41:42.683Z,10.40
2022-11-01T05:44:50.457Z,8.70
2022-11-01T05:48:03.307Z,8.80
2022-11-01T05:51:11.515Z,8.80
2022-11-01T05:54:21.241Z,8.20
2022-11-01T05:57:33.306Z,9.40
2022-11-01T06:00:42.802Z,8.70
2022-11-01T06:03:53.962Z,9.30
2022-11-01T06:07:02.807Z,8.40
2022-11-01T06:10:12.242Z,8.80
2022-11-01T06:13:20.751Z,8.00
2022-11-01T06:16:29.480Z,9.50
2022-11-01T06:19:37.795Z,8.10
2022-11-01T06:22:45.494Z,8.70
2022-11-01T06:26:00.045Z,8.80
2022-11-01T06:29:08.394Z,9.00
2022-11-01T06:32:16.319Z,8.80
2022-11-01T06:35:24.092Z,8.40
2022-11-01T06:38:40.893Z,8.10
2022-11-01T06:41:49.216Z,9.20
2022-11-01T06:45:05.250Z,9.90
2022-11-01T06:48:13.267Z,8.90
2022-11-01T06:51:21.442Z,8.60
2022-11-01T06:54:29.217Z,8.30
2022-11-01T06:57:37.550Z,8.80
2022-11-01T07:00:45.791Z,7.90
2022-11-01T07:03:56.066Z,10.40
2022-11-01T07:07:03.988Z,11.00
2022-11-01T07:10:13.586Z,11.00
2022-11-01T07:13:21.414Z,10.40
2022-11-01T07:16:29.872Z,8.10
2022-11-01T07:19:38.605Z,8.80
2022-11-01T07:22:46.517Z,12.80
2022-11-01T07:25:57.089Z,8.40
2022-11-01T07:29:05.456Z,9.00
2022-11-01T07:32:13.418Z,11.00
2022-11-01T07:35:21.652Z,9.30
2022-11-01T07:38:29.363Z,11.20
2022-11-01T07:41:37.266Z,11.00
2022-11-01T07:44:45.921Z,9.40
2022-11-01T07:47:54.626Z,11.00
2022-11-01T07:51:03.519Z,8.30
2022-11-01T07:54:11.961Z,8.10
2022-11-01T07:57:20.438Z,9.10
2022-11-01T08:00:29.172Z,9.00
2022-11-01T08:03:37.144Z,9.80
2022-11-01T08:06:46.996Z,9.30
2022-11-01T08:09:57.581Z,9.60
2022-11-01T08:13:14.630Z,9.00
2022-11-01T08:16:22.652Z,7.50
2022-11-01T08:19:30.770Z,11.80
2022-11-01T08:22:41.658Z,8.30
2022-11-01T08:25:50.906Z,9.10
2022-11-01T08:29:00.284Z,10.00
2022-11-01T08:32:09.533Z,10.10
2022-11-01T08:35:17.619Z,9.00
2022-11-01T08:38:25.568Z,11.20
2022-11-01T08:41:36.645Z,10.00
2022-11-01T08:44:45.944Z,9.80
2022-11-01T08:48:03.686Z,9.60
2022-11-01T08:51:13.631Z,7.90
2022-11-01T08:54:21.644Z,9.00
2022-11-01T08:57:30.097Z,8.10
2022-11-01T09:00:38.659Z,9.00
2022-11-01T09:03:47.204Z,8.40
2022-11-01T09:06:54.942Z,8.20
2022-11-01T09:10:02.816Z,8.10
2022-11-01T09:13:10.745Z,8.60
2022-11-01T09:16:18.922Z,9.00
2022-11-01T09:19:26.700Z,10.30
2022-11-01T09:22:35.040Z,9.80
2022-11-01T09:25:43.076Z,9.90
2022-11-01T09:28:50.928Z,9.80
2022-11-01T09:32:00.321Z,9.00
2022-11-01T09:35:10.394Z,9.50
2022-11-01T09:38:18.179Z,10.90
2022-11-01T09:41:36.910Z,9.50
2022-11-01T09:44:49.362Z,10.10
2022-11-01T09:47:59.661Z,11.10
2022-11-01T09:51:14.480Z,9.30
2022-11-01T09:54:26.045Z,10.70
2022-11-01T09:57:41.935Z,11.10
2022-11-01T10:01:01.710Z,11.00
2022-11-01T10:07:44.572Z,10.30
2022-11-01T10:11:09.929Z,8.30
2022-11-01T10:14:33.656Z,12.20
2022-11-01T10:17:55.014Z,9.00
2022-11-01T10:21:12.406Z,12.50
2022-11-01T10:24:30.613Z,11.90
2022-11-01T10:27:48.282Z,12.40
2022-11-01T10:31:05.014Z,12.50
2022-11-01T10:34:34.823Z,12.60
2022-11-01T10:38:04.251Z,11.60
2022-11-01T10:41:33.200Z,11.60
2022-11-01T10:44:46.837Z,11.70
2022-11-01T10:47:58.457Z,10.60
2022-11-01T10:51:10.662Z,11.70
2022-11-01T10:54:25.780Z,12.30
2022-11-01T10:57:43.991Z,12.70
2022-11-01T11:00:53.633Z,11.50
2022-11-01T11:04:06.491Z,11.70
2022-11-01T11:07:21.530Z,12.10
2022-11-01T11:10:34.000Z,11.50
2022-11-01T11:16:57.040Z,11.20
2022-11-01T11:20:11.853Z,12.20
2022-11-01T11:23:23.588Z,11.80
2022-11-01T11:29:57.819Z,13.70
2022-11-01T11:33:07.633Z,13.50
2022-11-01T11:36:15.925Z,12.70
2022-11-01T11:39:32.810Z,12.90
2022-11-01T11:42:42.188Z,11.50
2022-11-01T11:46:13.547Z,12.50
2022-11-01T11:49:33.577Z,13.50
2022-11-01T11:52:42.593Z,12.10
2022-11-01T11:55:56.831Z,11.40
2022-11-01T11:59:15.127Z,13.10
2022-11-01T12:02:29.030Z,13.30
2022-11-01T12:05:41.246Z,11.90
2022-11-01T12:08:53.455Z,13.00
2022-11-01T12:12:18.445Z,12.30
2022-11-01T12:15:41.192Z,12.90
2022-11-01T12:19:00.208Z,14.20
2022-11-01T12:22:11.998Z,12.70
2022-11-01T12:25:25.397Z,13.60
2022-11-01T12:28:40.626Z,13.70
2022-11-01T12:31:53.458Z,13.40
2022-11-01T12:35:16.755Z,14.00
2022-11-01T12:38:52.618Z,14.90
2022-11-01T12:42:05.435Z,13.70
2022-11-01T12:45:24.439Z,15.30
2022-11-01T12:48:41.402Z,14.80
2022-11-01T12:51:57.501Z,15.00
2022-11-01T12:55:20.621Z,14.40
2022-11-01T12:58:35.228Z,13.90
2022-11-01T13:01:57.881Z,13.80
2022-11-01T13:05:17.366Z,13.70
2022-11-01T13:08:38.525Z,14.10
2022-11-01T13:12:00.827Z,13.90
2022-11-01T13:15:22.993Z,15.20
2022-11-01T13:18:49.069Z,14.50
2022-11-01T13:22:03.155Z,14.60
2022-11-01T13:25:23.691Z,14.40
2022-11-01T13:28:55.404Z,14.70
2022-11-01T13:32:14.674Z,15.30
2022-11-01T13:35:56.380Z,14.90
2022-11-01T13:39:26.484Z,15.00
2022-11-01T13:42:41.062Z,15.00
2022-11-01T13:46:38.505Z,14.20
2022-11-01T13:50:20.995Z,15.00
2022-11-01T13:53:38.647Z,14.60
2022-11-01T13:56:54.419Z,14.70
2022-11-01T14:00:07.090Z,13.60
2022-11-01T14:03:30.503Z,16.60
2022-11-01T14:06:42.746Z,14.90
2022-11-01T14:09:54.539Z,14.80
2022-11-01T14:13:37.435Z,16.50
2022-11-01T14:16:45.202Z,14.70
2022-11-01T14:20:42.352Z,15.00
2022-11-01T14:23:59.739Z,14.00
2022-11-01T14:27:35.004Z,15.10
2022-11-01T14:30:45.798Z,15.60
2022-11-01T14:34:00.155Z,15.50
2022-11-01T14:37:27.152Z,14.80
2022-11-01T14:40:43.559Z,15.00
2022-11-01T14:43:57.993Z,15.00
2022-11-01T14:47:14.243Z,16.00
2022-11-01T14:50:36.039Z,16.90
2022-11-01T14:53:46.898Z,17.10
2022-11-01T14:56:57.796Z,16.20
2022-11-01T15:00:28.818Z,18.50
2022-11-01T15:03:36.728Z,16.30
2022-11-01T15:06:46.536Z,16.50
2022-11-01T15:13:19.896Z,14.80
2022-11-01T15:16:30.077Z,18.50
2022-11-01T15:19:40.757Z,18.30
2022-11-01T15:22:49.390Z,18.60
2022-11-01T15:25:58.677Z,18.30
2022-11-01T15:29:08.587Z,16.10
2022-11-01T15:32:29.821Z,16.40
2022-11-01T15:35:37.633Z,16.20
2022-11-01T15:38:55.876Z,16.90
2022-11-01T15:42:14.287Z,17.90
2022-11-01T15:45:30.872Z,15.70
2022-11-01T15:48:40.957Z,16.20
2022-11-01T15:51:55.475Z,15.90
2022-11-01T15:55:14.816Z,17.00
2022-11-01T15:58:28.443Z,15.40
2022-11-01T16:01:39.622Z,16.40
2022-11-01T16:04:49.699Z,17.30
2022-11-01T16:07:58.309Z,39.40
2022-11-01T16:11:08.770Z,40.10
2022-11-01T16:14:26.697Z,29.20
2022-11-01T16:17:42.538Z,22.00
2022-11-01T16:20:52.639Z,18.70
2022-11-01T16:24:09.418Z,17.40
2022-11-01T16:27:30.892Z,16.60
2022-11-01T16:30:45.385Z,15.70
2022-11-01T16:33:54.728Z,20.30
2022-11-01T16:37:03.733Z,19.60
2022-11-01T16:40:30.250Z,22.00
2022-11-01T16:43:38.660Z,23.20
2022-11-01T16:46:46.598Z,36.90
2022-11-01T16:49:56.547Z,20.70
2022-11-01T16:53:10.219Z,17.80
2022-11-01T16:56:40.738Z,16.60
2022-11-01T16:59:51.035Z,18.50
2022-11-01T17:02:59.590Z,17.60
2022-11-01T17:06:08.098Z,19.00
2022-11-01T17:09:19.862Z,18.30
2022-11-01T17:12:28.677Z,19.00
2022-11-01T17:15:42.203Z,19.70
2022-11-01T17:18:55.942Z,23.80
2022-11-01T17:22:08.241Z,18.60
2022-11-01T17:25:20.409Z,18.10
2022-11-01T17:28:28.581Z,16.50
2022-11-01T17:31:36.777Z,18.40
2022-11-01T17:34:44.589Z,16.90
2022-11-01T17:37:52.676Z,16.20
2022-11-01T17:41:00.866Z,16.00
2022-11-01T17:44:08.987Z,16.10
2022-11-01T17:47:18.817Z,17.80
2022-11-01T17:53:32.918Z,15.10
2022-11-01T17:56:41.051Z,17.10
2022-11-01T17:59:48.958Z,16.30
2022-11-01T18:02:57.403Z,15.20
2022-11-01T18:06:05.571Z,15.90
2022-11-01T18:09:26.389Z,16.20
2022-11-01T18:12:50.904Z,14.80
2022-11-01T18:16:10.934Z,16.90
2022-11-01T18:19:51.870Z,15.80
2022-11-01T18:23:05.990Z,16.50
2022-11-01T18:26:20.753Z,18.70
2022-11-01T18:29:30.009Z,18.40
2022-11-01T18:32:45.125Z,20.20
2022-11-01T18:36:03.435Z,21.40
2022-11-01T18:39:22.498Z,19.30
2022-11-01T18:42:31.194Z,20.10
2022-11-01T18:45:58.802Z,20.10
2022-11-01T18:49:15.605Z,18.20
2022-11-01T18:52:24.461Z,17.60
2022-11-01T18:55:35.293Z,16.60
2022-11-01T18:58:45.832Z,16.10
2022-11-01T19:02:00.037Z,15.50
2022-11-01T19:05:19.772Z,15.70
2022-11-01T19:08:29.392Z,17.10
2022-11-01T19:11:38.096Z,18.70
2022-11-01T19:14:47.639Z,16.40
2022-11-01T19:18:03.423Z,16.70
2022-11-01T19:21:20.136Z,17.10
2022-11-01T19:24:36.062Z,13.70
2022-11-01T19:27:44.426Z,14.40
2022-11-01T19:30:55.794Z,14.90
2022-11-01T19:34:07.165Z,14.60
2022-11-01T19:37:33.042Z,14.00
2022-11-01T19:40:45.925Z,13.10
2022-11-01T19:43:55.106Z,13.50
2022-11-01T19:47:30.193Z,12.40
2022-11-01T19:50:45.962Z,11.90
2022-11-01T19:53:55.087Z,12.70
2022-11-01T19:57:09.406Z,11.80
2022-11-01T20:00:25.652Z,11.80
2022-11-01T20:03:44.348Z,11.70
2022-11-01T20:07:01.666Z,11.20
2022-11-01T20:10:13.705Z,12.00
2022-11-01T20:13:21.847Z,12.00
2022-11-01T20:16:29.692Z,11.50
2022-11-01T20:19:37.627Z,11.80
2022-11-01T20:22:54.939Z,12.70
2022-11-01T20:26:08.782Z,11.50
2022-11-01T20:29:16.595Z,11.30
2022-11-01T20:32:24.585Z,11.50
2022-11-01T20:35:32.372Z,11.30
2022-11-01T20:38:40.929Z,10.90
2022-11-01T20:41:50.375Z,10.30
2022-11-01T20:44:58.872Z,11.90
2022-11-01T20:48:08.610Z,11.30
2022-11-01T20:51:16.626Z,11.20
2022-11-01T20:54:24.559Z,10.70
2022-11-01T20:57:33.021Z,11.70
2022-11-01T21:00:41.579Z,10.10
2022-11-01T21:03:49.865Z,11.40
2022-11-01T21:06:58.218Z,11.70
2022-11-01T21:10:29.778Z,11.90
2022-11-01T21:13:45.264Z,11.10
2022-11-01T21:16:59.073Z,10.30
2022-11-01T21:20:24.533Z,11.00
2022-11-01T21:23:35.979Z,11.20
2022-11-01T21:26:43.794Z,10.60
2022-11-01T21:29:55.831Z,10.90
2022-11-01T21:33:14.237Z,11.30
2022-11-01T21:36:34.063Z,10.40
2022-11-01T21:39:42.346Z,10.20
2022-11-01T21:42:50.356Z,10.40
2022-11-01T21:45:58.758Z,10.30
2022-11-01T21:49:25.475Z,10.80
2022-11-01T21:52:33.437Z,11.00
2022-11-01T21:55:46.243Z,11.00
2022-11-01T21:58:54.188Z,10.40
2022-11-01T22:02:04.293Z,10.70
2022-11-01T22:05:12.524Z,10.40
2022-11-01T22:08:20.821Z,10.70
2022-11-01T22:11:32.500Z,10.90
2022-11-01T22:14:40.880Z,11.10
2022-11-01T22:17:48.545Z,10.50
2022-11-01T22:20:56.714Z,11.10
2022-11-01T22:24:05.163Z,10.90
2022-11-01T22:27:13.074Z,10.40
2022-11-01T22:30:22.864Z,10.90
2022-11-01T22:36:41.830Z,9.50
2022-11-01T22:39:53.032Z,10.10
2022-11-01T22:46:59.076Z,10.10
2022-11-01T22:50:13.890Z,9.40
2022-11-01T22:53:25.689Z,10.20
2022-11-01T22:56:34.059Z,8.60
2022-11-01T22:59:46.795Z,10.40
2022-11-01T23:02:57.872Z,9.70
2022-11-01T23:06:22.556Z,10.00
2022-11-01T23:09:38.852Z,9.60
2022-11-01T23:13:05.419Z,9.60
2022-11-01T23:16:27.270Z,9.00
2022-11-01T23:19:35.401Z,9.90
2022-11-01T23:22:45.649Z,10.10
2022-11-01T23:25:54.480Z,10.30
2022-11-01T23:29:04.003Z,9.80
2022-11-01T23:32:12.687Z,10.00
2022-11-01T23:35:23.884Z,10.50
2022-11-01T23:38:41.043Z,10.90
2022-11-01T23:41:51.095Z,10.90
2022-11-01T23:45:01.590Z,11.60
2022-11-01T23:48:14.101Z,11.40
2022-11-01T23:51:24.429Z,12.30
2022-11-01T23:54:40.006Z,11.20
2022-11-01T23:57:52.191Z,11.30
